Time;durP1;ratioP1;P1;durP2;ratioP2;P2;SDS_P1;SDS_P2;PMS_P1;PMS_P2;Temp;Humidity;BMP_temperature;BMP_pressure;BME280_temperature;BME280_humidity;BME280_pressure;Samples;Min_cycle;Max_cycle;Signal;HPM_P1;HPM_P2
2021/03/21 04:12:46;;;;;;;0.60;0.60;;;2.20;78.50;;;;;;5084455;28;20063;-65
2021/03/21 04:15:25;;;;;;;0.50;0.50;;;2.10;78.30;;;;;;5086624;28;20082;-64
2021/03/21 04:18:06;;;;;;;0.40;0.40;;;2.10;77.50;;;;;;5080748;28;20008;-64
2021/03/21 04:20:35;;;;;;;;;;;2.10;77.50;;;;;;5093006;28;20046;-65
2021/03/21 04:23:23;;;;;;;0.40;0.40;;;2.10;75.90;;;;;;5083685;28;20360;-64
2021/03/21 04:26:23;;;;;;;0.52;0.52;;;2.10;75.30;;;;;;5072113;28;20383;-64
2021/03/21 04:28:56;;;;;;;;;;;2.10;75.90;;;;;;5058466;28;20484;-64
2021/03/21 04:31:22;;;;;;;0.50;0.50;;;2.10;74.30;;;;;;5079466;28;20002;-64
2021/03/21 04:34:08;;;;;;;0.70;0.70;;;2.10;75.20;;;;;;5078812;28;20059;-64
2021/03/21 04:36:46;;;;;;;0.50;0.50;;;2.10;74.40;;;;;;5072265;28;20106;-64
2021/03/21 04:39:28;;;;;;;0.50;0.50;;;2.10;74.50;;;;;;5086052;28;20021;-64
2021/03/21 04:42:17;;;;;;;0.50;0.50;;;2.10;74.00;;;;;;5082178;28;20056;-63
2021/03/21 04:44:55;;;;;;;0.52;0.40;;;2.10;74.40;;;;;;5072187;28;20023;-64
2021/03/21 04:47:38;;;;;;;0.60;0.60;;;2.00;73.90;;;;;;5072013;28;20455;-65
2021/03/21 04:50:04;;;;;;;0.50;0.50;;;2.00;74.00;;;;;;5071886;28;20081;-65
2021/03/21 04:52:51;;;;;;;1.08;0.73;;;2.00;73.30;;;;;;5071768;28;20036;-65
2021/03/21 04:55:27;;;;;;;0.50;0.50;;;2.00;73.90;;;;;;5080261;28;20085;-64
2021/03/21 04:57:57;;;;;;;0.55;0.55;;;2.00;73.20;;;;;;5090368;28;20052;-64
2021/03/21 05:00:35;;;;;;;0.55;0.55;;;2.00;73.30;;;;;;5080100;28;20449;-64
2021/03/21 05:03:17;;;;;;;0.55;0.55;;;2.00;73.20;;;;;;5091930;28;20024;-64
2021/03/21 05:06:00;;;;;;;0.68;0.68;;;2.00;72.60;;;;;;5077692;28;20467;-65
2021/03/21 05:08:31;;;;;;;0.60;0.60;;;2.00;72.10;;;;;;5091473;28;20032;-65
2021/03/21 05:11:01;;;;;;;0.60;0.57;;;2.00;71.80;;;;;;5085066;28;20020;-65
2021/03/21 05:13:55;;;;;;;0.50;0.50;;;2.10;70.70;;;;;;5085182;28;20070;-64
2021/03/21 05:16:32;;;;;;;0.88;0.70;;;2.10;71.20;;;;;;5081275;28;20082;-64
2021/03/21 05:19:30;;;;;;;0.50;0.50;;;2.10;69.40;;;;;;5077577;28;20024;-64
2021/03/21 05:22:06;;;;;;;0.50;0.50;;;2.10;69.90;;;;;;5077184;28;20077;-64
2021/03/21 05:24:45;;;;;;;0.40;0.40;;;2.10;70.20;;;;;;5078795;28;20416;-64
2021/03/21 05:27:41;;;;;;;0.93;0.55;;;2.10;70.40;;;;;;5077626;28;20033;-65
2021/03/21 05:30:15;;;;;;;0.55;0.50;;;2.20;69.90;;;;;;5089751;28;20089;-65
2021/03/21 05:32:42;;;;;;;1.75;0.60;;;2.20;69.90;;;;;;5077395;28;20024;-63
2021/03/21 05:35:13;;;;;;;0.50;0.50;;;2.20;68.90;;;;;;5091476;28;20574;-65
2021/03/21 05:37:52;;;;;;;0.65;0.40;;;2.30;69.10;;;;;;5088571;28;20071;-64
2021/03/21 05:40:42;;;;;;;0.50;0.50;;;2.20;69.40;;;;;;5091501;28;20021;-68
2021/03/21 05:43:35;;;;;;;0.40;0.40;;;2.60;69.70;;;;;;5077808;28;20434;-67
2021/03/21 05:46:12;;;;;;;0.75;0.60;;;2.50;67.00;;;;;;5091386;28;20028;-66
2021/03/21 05:49:00;;;;;;;0.63;0.50;;;2.40;67.50;;;;;;5089303;28;20028;-64
2021/03/21 05:51:34;;;;;;;0.73;0.50;;;2.30;66.30;;;;;;5090450;28;20020;-68
2021/03/21 05:54:37;;;;;;;0.50;0.50;;;2.30;69.00;;;;;;5089508;28;20024;-67
2021/03/21 05:57:21;;;;;;;0.40;0.40;;;2.40;68.10;;;;;;5089710;28;20028;-67
2021/03/21 06:00:11;;;;;;;1.55;0.82;;;2.30;68.80;;;;;;5080790;28;20052;-73
2021/03/21 06:02:58;;;;;;;0.80;0.80;;;2.30;68.50;;;;;;5088456;28;20059;-69
2021/03/21 06:06:01;;;;;;;2.13;0.50;;;2.30;68.80;;;;;;5086755;28;20020;-71
2021/03/21 06:08:32;;;;;;;0.50;0.50;;;2.30;68.70;;;;;;5094045;28;20110;-71
2021/03/21 06:11:13;;;;;;;0.50;0.50;;;2.30;67.50;;;;;;5094408;28;20020;-72
2021/03/21 06:14:00;;;;;;;0.63;0.60;;;2.30;67.20;;;;;;5094147;28;20044;-68
2021/03/21 06:16:54;;;;;;;0.50;0.50;;;2.20;66.70;;;;;;5094592;28;20020;-71
2021/03/21 06:19:53;;;;;;;0.57;0.57;;;2.20;66.00;;;;;;5092577;28;20089;-71
2021/03/21 06:22:24;;;;;;;1.48;0.60;;;2.20;67.70;;;;;;5094927;28;20024;-68
2021/03/21 06:25:15;;;;;;;1.40;0.60;;;2.30;66.00;;;;;;5094862;28;20491;-68
2021/03/21 06:28:05;;;;;;;0.85;0.80;;;2.20;66.90;;;;;;5094788;28;20036;-67
2021/03/21 06:30:46;;;;;;;;;;;2.30;67.00;;;;;;5089399;28;20099;-67
2021/03/21 06:33:21;;;;;;;1.10;0.70;;;2.20;65.60;;;;;;5094639;28;19908;-67
2021/03/21 06:36:04;;;;;;;0.50;0.50;;;2.20;66.40;;;;;;5094441;28;20024;-67
2021/03/21 06:39:00;;;;;;;0.82;0.63;;;2.20;65.90;;;;;;5094337;28;20471;-67
2021/03/21 06:41:32;;;;;;;0.55;0.55;;;2.20;66.40;;;;;;5089118;28;20505;-67
2021/03/21 06:44:21;;;;;;;0.68;0.68;;;2.20;65.40;;;;;;5094506;28;20016;-67
2021/03/21 06:47:14;;;;;;;0.60;0.60;;;2.20;65.80;;;;;;5043589;28;20094;-66
2021/03/21 06:49:52;;;;;;;0.50;0.50;;;2.10;64.30;;;;;;5092548;28;20020;-67
2021/03/21 06:52:49;;;;;;;0.85;0.63;;;2.10;64.50;;;;;;5094838;28;20020;-67
2021/03/21 06:55:33;;;;;;;0.63;0.63;;;2.00;64.30;;;;;;5082427;28;20051;-67
2021/03/21 06:58:24;;;;;;;0.50;0.50;;;2.00;64.90;;;;;;5094147;28;20028;-66
2021/03/21 07:01:18;;;;;;;0.60;0.60;;;2.10;65.40;;;;;;5094349;28;20016;-66
2021/03/21 07:04:08;;;;;;;0.63;0.63;;;2.10;65.70;;;;;;5045892;28;20040;-66
2021/03/21 07:06:42;;;;;;;0.50;0.50;;;2.10;63.60;;;;;;5093915;28;20044;-67
2021/03/21 07:09:27;;;;;;;0.70;0.70;;;2.10;63.30;;;;;;5086038;28;20028;-67
2021/03/21 07:12:05;;;;;;;1.35;0.73;;;2.20;63.80;;;;;;5093139;28;20048;-66
2021/03/21 07:14:52;;;;;;;0.63;0.50;;;2.20;63.40;;;;;;5091200;28;20023;-66
2021/03/21 07:17:27;;;;;;;0.88;0.70;;;2.10;63.00;;;;;;5093142;28;20016;-65
2021/03/21 07:20:30;;;;;;;1.58;0.68;;;2.10;62.60;;;;;;5093116;28;20016;-66
2021/03/21 07:23:08;;;;;;;4.15;0.85;;;2.00;63.40;;;;;;5093262;28;20051;-66
2021/03/21 07:25:53;;;;;;;1.38;0.60;;;2.00;62.90;;;;;;5074905;28;20051;-67
2021/03/21 07:28:43;;;;;;;1.00;0.80;;;2.00;63.50;;;;;;5087071;28;20035;-67
2021/03/21 07:31:22;;;;;;;1.13;0.70;;;2.10;63.60;;;;;;5093316;28;20601;-67
2021/03/21 07:34:06;;;;;;;0.98;0.63;;;2.20;62.70;;;;;;5092779;28;20043;-66
2021/03/21 07:37:16;;;;;;;1.10;0.60;;;2.30;62.60;;;;;;5081917;28;20078;-65
2021/03/21 07:40:15;;;;;;;0.60;0.60;;;2.30;61.10;;;;;;5077060;28;20032;-65
2021/03/21 07:43:00;;;;;;;0.85;0.60;;;2.50;61.00;;;;;;5092973;28;20028;-65
2021/03/21 07:45:38;;;;;;;4.15;0.65;;;2.50;60.30;;;;;;5093381;28;20035;-65
2021/03/21 07:48:30;;;;;;;0.95;0.52;;;2.50;60.70;;;;;;5092879;28;20036;-65
2021/03/21 07:51:13;;;;;;;0.60;0.60;;;2.50;60.00;;;;;;5056034;28;20036;-64
2021/03/21 07:53:42;;;;;;;1.40;0.60;;;2.50;59.70;;;;;;5093196;28;20020;-65
2021/03/21 07:56:16;;;;;;;4.95;0.80;;;2.40;60.00;;;;;;5092183;28;20389;-67
2021/03/21 07:58:54;;;;;;;2.72;0.63;;;2.40;60.90;;;;;;5092025;28;20021;-67
2021/03/21 08:01:21;;;;;;;1.75;0.55;;;2.40;60.20;;;;;;5092841;28;20027;-66
2021/03/21 08:04:05;;;;;;;1.27;0.75;;;2.40;59.90;;;;;;5092652;28;20023;-66
2021/03/21 08:06:40;;;;;;;1.00;0.70;;;2.50;59.80;;;;;;5092358;28;20101;-66
2021/03/21 08:09:19;;;;;;;1.75;0.65;;;2.40;59.00;;;;;;5089831;28;20031;-67
2021/03/21 08:12:02;;;;;;;2.95;0.70;;;2.50;58.90;;;;;;5092110;28;20028;-66
2021/03/21 08:14:31;;;;;;;1.02;0.60;;;2.50;58.60;;;;;;5060212;28;20029;-67
2021/03/21 08:17:14;;;;;;;0.82;0.57;;;2.60;60.00;;;;;;5082099;28;20429;-67
2021/03/21 08:19:40;;;;;;;0.47;0.40;;;2.70;58.30;;;;;;5082883;28;20042;-67
2021/03/21 08:22:17;;;;;;;0.57;0.57;;;2.70;58.40;;;;;;5092578;28;20020;-67
2021/03/21 08:24:44;;;;;;;2.05;0.80;;;2.70;58.80;;;;;;5092088;28;20499;-67
2021/03/21 08:27:22;;;;;;;2.58;0.60;;;2.60;58.80;;;;;;5090490;28;20123;-66
2021/03/21 08:30:04;;;;;;;0.57;0.50;;;2.60;59.00;;;;;;5071672;28;20487;-65
2021/03/21 08:32:32;;;;;;;0.50;0.50;;;2.60;59.40;;;;;;5080977;28;20032;-66
2021/03/21 08:35:18;;;;;;;4.43;0.80;;;2.60;58.70;;;;;;5092167;28;20390;-66
2021/03/21 08:37:52;;;;;;;1.58;0.70;;;2.60;59.10;;;;;;5090304;28;20022;-66
2021/03/21 08:40:24;;;;;;;3.90;0.82;;;2.60;59.00;;;;;;5092642;28;20024;-67
2021/03/21 08:43:09;;;;;;;0.50;0.50;;;2.70;59.70;;;;;;5092570;28;20036;-67
2021/03/21 08:45:43;;;;;;;1.20;0.60;;;2.70;58.30;;;;;;5092207;28;20025;-67
2021/03/21 08:48:16;;;;;;;2.85;0.80;;;2.70;57.90;;;;;;5092515;28;20542;-66
2021/03/21 08:50:48;;;;;;;1.95;0.60;;;2.70;58.70;;;;;;5092385;28;20488;-66
2021/03/21 08:53:29;;;;;;;0.85;0.60;;;2.60;58.60;;;;;;5092572;28;20035;-66
2021/03/21 08:56:10;;;;;;;0.82;0.60;;;2.60;59.00;;;;;;5092617;28;20020;-66
2021/03/21 08:58:36;;;;;;;3.53;0.70;;;2.50;58.10;;;;;;5091008;28;20023;-65
2021/03/21 09:01:16;;;;;;;0.75;0.57;;;2.50;58.30;;;;;;5091893;28;20612;-65
2021/03/21 09:03:43;;;;;;;1.08;0.60;;;2.50;58.70;;;;;;5091979;28;20028;-65
2021/03/21 09:06:25;;;;;;;2.00;0.60;;;2.60;58.90;;;;;;5089087;28;20032;-65
2021/03/21 09:08:51;;;;;;;2.22;0.50;;;2.70;58.40;;;;;;5089852;28;20024;-65
2021/03/21 09:11:33;;;;;;;1.17;0.60;;;2.70;58.30;;;;;;5091438;28;20376;-65
2021/03/21 09:14:02;;;;;;;2.45;0.60;;;2.70;58.00;;;;;;5083096;28;20055;-66
2021/03/21 09:16:27;;;;;;;1.13;0.70;;;2.70;57.50;;;;;;5073929;28;20368;-65
2021/03/21 09:19:15;;;;;;;0.95;0.43;;;2.80;57.60;;;;;;5091881;28;20034;-66
2021/03/21 09:21:47;;;;;;;1.23;0.60;;;2.70;57.50;;;;;;5091920;28;20028;-65
2021/03/21 09:24:29;;;;;;;1.02;0.60;;;2.80;57.90;;;;;;5091014;28;20593;-65
2021/03/21 09:27:19;;;;;;;0.47;0.47;;;2.80;57.90;;;;;;5073683;28;20403;-65
2021/03/21 09:29:48;;;;;;;0.75;0.60;;;2.80;56.70;;;;;;5090933;28;20062;-67
2021/03/21 09:32:31;;;;;;;0.57;0.50;;;2.80;57.10;;;;;;5091872;28;20103;-65
2021/03/21 09:35:23;;;;;;;0.55;0.40;;;2.80;56.70;;;;;;5091936;28;20082;-64
2021/03/21 09:37:54;;;;;;;1.75;0.65;;;2.80;56.80;;;;;;5077333;28;20042;-65
2021/03/21 09:40:35;;;;;;;1.63;0.63;;;2.80;55.90;;;;;;5095301;28;20017;-65
2021/03/21 09:43:03;;;;;;;0.50;0.50;;;2.80;56.80;;;;;;5093400;28;20032;-65
2021/03/21 09:45:30;;;;;;;0.40;0.40;;;2.80;57.30;;;;;;5095798;28;20097;-65
2021/03/21 09:48:05;;;;;;;1.85;0.52;;;2.80;56.40;;;;;;5095523;28;20038;-64
2021/03/21 09:50:39;;;;;;;2.45;0.63;;;2.80;55.70;;;;;;5093571;28;20020;-64
2021/03/21 09:53:35;;;;;;;0.90;0.60;;;2.70;55.30;;;;;;5095167;28;20024;-64
2021/03/21 09:56:20;;;;;;;1.80;0.60;;;2.70;56.30;;;;;;5093961;28;20028;-64
2021/03/21 09:58:52;;;;;;;0.60;0.60;;;2.80;56.70;;;;;;5094975;28;20020;-64
2021/03/21 10:01:43;;;;;;;1.65;0.68;;;2.80;56.40;;;;;;5095544;28;20024;-64
2021/03/21 10:04:29;;;;;;;0.55;0.55;;;2.80;55.90;;;;;;5095356;28;20081;-65
2021/03/21 10:06:59;;;;;;;1.10;0.60;;;2.80;54.40;;;;;;5093127;28;20115;-65
2021/03/21 10:09:29;;;;;;;1.35;0.70;;;2.90;54.80;;;;;;5095014;28;20024;-64
2021/03/21 10:12:05;;;;;;;1.63;0.70;;;2.90;54.50;;;;;;5095214;28;20043;-64
2021/03/21 10:14:30;;;;;;;0.68;0.68;;;2.90;55.60;;;;;;5095128;28;20266;-64
2021/03/21 10:16:58;;;;;;;3.60;0.77;;;2.90;54.80;;;;;;5095162;28;20066;-64
2021/03/21 10:19:47;;;;;;;0.50;0.50;;;2.80;54.50;;;;;;5095297;28;20030;-64
2021/03/21 10:22:18;;;;;;;1.05;0.70;;;2.70;54.70;;;;;;5085266;28;20055;-64
2021/03/21 10:24:46;;;;;;;1.17;0.80;;;2.70;54.20;;;;;;5094977;28;20028;-64
2021/03/21 10:27:15;;;;;;;0.50;0.50;;;2.70;55.10;;;;;;5095274;28;20119;-65
2021/03/21 10:29:43;;;;;;;1.17;0.52;;;2.70;54.60;;;;;;5094655;28;20024;-64
2021/03/21 10:32:27;;;;;;;1.73;0.60;;;2.70;54.40;;;;;;5094566;28;20513;-64
2021/03/21 10:34:53;;;;;;;1.42;0.68;;;2.60;54.50;;;;;;5093321;28;20024;-64
2021/03/21 10:37:41;;;;;;;0.70;0.70;;;2.70;55.00;;;;;;5094622;28;20042;-65
2021/03/21 10:40:24;;;;;;;1.70;0.73;;;2.70;54.10;;;;;;5093018;28;20016;-65
2021/03/21 10:43:00;;;;;;;1.27;0.70;;;2.70;53.60;;;;;;5094793;28;20074;-65
2021/03/21 10:45:35;;;;;;;2.78;0.50;;;2.60;53.00;;;;;;5074399;28;20357;-65
2021/03/21 10:48:04;;;;;;;0.50;0.45;;;2.60;53.90;;;;;;5074481;28;20036;-63
2021/03/21 10:50:29;;;;;;;0.70;0.70;;;2.70;52.90;;;;;;5074240;28;20016;-64
2021/03/21 10:53:10;;;;;;;1.17;0.82;;;2.70;52.50;;;;;;5074186;28;20545;-64
2021/03/21 10:55:39;;;;;;;0.60;0.60;;;2.80;53.50;;;;;;5074365;28;20029;-64
2021/03/21 10:58:30;;;;;;;0.95;0.68;;;2.80;53.30;;;;;;5079861;28;20035;-64
2021/03/21 11:01:14;;;;;;;;;;;2.90;53.70;;;;;;5074955;28;20032;-64
2021/03/21 11:03:40;;;;;;;0.50;0.50;;;2.90;53.20;;;;;;5074657;28;19905;-64
2021/03/21 11:06:14;;;;;;;0.77;0.70;;;2.90;52.50;;;;;;5074431;28;20079;-64
2021/03/21 11:08:39;;;;;;;0.80;0.50;;;2.80;53.70;;;;;;5074199;28;20029;-64
2021/03/21 11:11:25;;;;;;;3.22;0.60;;;2.80;52.90;;;;;;5074262;28;20031;-64
2021/03/21 11:13:52;;;;;;;4.22;0.60;;;2.70;52.80;;;;;;5093478;28;20097;-64
2021/03/21 11:16:22;;;;;;;1.92;0.80;;;2.70;53.30;;;;;;5094374;28;20085;-64
2021/03/21 11:18:52;;;;;;;;;;;2.70;52.70;;;;;;5094471;28;20597;-64
2021/03/21 11:21:18;;;;;;;1.23;0.63;;;2.70;52.80;;;;;;5094096;28;19908;-64
2021/03/21 11:23:55;;;;;;;0.73;0.60;;;2.70;52.60;;;;;;5094427;28;20024;-64
2021/03/21 11:26:34;;;;;;;2.15;0.68;;;2.70;51.60;;;;;;5094138;28;20036;-63
2021/03/21 11:29:05;;;;;;;1.80;0.70;;;2.70;52.40;;;;;;5093978;28;20028;-64
2021/03/21 11:31:39;;;;;;;1.38;0.60;;;2.70;52.70;;;;;;5093686;28;20028;-64
2021/03/21 11:34:19;;;;;;;1.20;0.65;;;2.70;52.50;;;;;;5093248;28;20035;-64
2021/03/21 11:36:46;;;;;;;1.20;0.83;;;2.80;52.10;;;;;;5093590;28;20028;-64
2021/03/21 11:39:32;;;;;;;0.90;0.60;;;2.80;52.50;;;;;;5093654;28;20017;-64
2021/03/21 11:41:58;;;;;;;1.05;0.60;;;2.80;52.60;;;;;;5094017;28;20036;-64
2021/03/21 11:44:31;;;;;;;0.77;0.50;;;2.80;52.50;;;;;;5093553;28;20024;-64
2021/03/21 11:47:29;;;;;;;0.60;0.60;;;2.80;50.90;;;;;;5092240;28;20047;-64
2021/03/21 11:49:57;;;;;;;0.65;0.57;;;2.90;51.60;;;;;;5084318;28;20526;-64
2021/03/21 11:52:24;;;;;;;0.82;0.50;;;2.90;51.80;;;;;;5091740;28;20104;-64
2021/03/21 11:54:50;;;;;;;0.70;0.43;;;3.00;52.20;;;;;;5092621;28;20408;-64
2021/03/21 11:57:42;;;;;;;2.75;0.90;;;3.10;51.80;;;;;;5093530;28;20020;-64
2021/03/21 12:00:31;;;;;;;0.95;0.60;;;3.10;52.00;;;;;;5093457;28;20028;-64
2021/03/21 12:03:12;;;;;;;1.27;0.57;;;3.10;50.90;;;;;;5093150;28;20016;-64
2021/03/21 12:05:41;;;;;;;0.70;0.55;;;3.00;50.30;;;;;;5092748;28;20507;-64
2021/03/21 12:08:13;;;;;;;0.77;0.55;;;3.00;50.60;;;;;;5090393;28;20112;-64
2021/03/21 12:10:42;;;;;;;2.05;0.80;;;3.00;50.60;;;;;;5093261;28;20024;-64
2021/03/21 12:13:26;;;;;;;1.23;0.60;;;3.10;51.20;;;;;;5092496;28;20523;-65
2021/03/21 12:15:52;;;;;;;3.42;0.60;;;3.00;50.00;;;;;;5086707;28;20028;-65
2021/03/21 12:18:21;;;;;;;0.85;0.60;;;2.90;50.20;;;;;;5093084;28;20483;-65
2021/03/21 12:20:48;;;;;;;1.67;0.50;;;2.90;49.90;;;;;;5092045;28;20032;-65
2021/03/21 12:23:32;;;;;;;0.70;0.70;;;2.90;50.70;;;;;;5093295;28;20375;-65
2021/03/21 12:26:37;;;;;;;1.38;0.60;;;3.00;51.20;;;;;;5074794;28;20026;-65
2021/03/21 12:29:23;;;;;;;0.80;0.60;;;3.10;50.60;;;;;;5010413;28;20033;-65
2021/03/21 12:31:55;;;;;;;0.98;0.50;;;3.20;51.80;;;;;;5009689;28;20575;-65
2021/03/21 12:34:33;;;;;;;0.75;0.75;;;3.20;51.80;;;;;;5051319;28;20158;-66
2021/03/21 12:36:59;;;;;;;0.60;0.50;;;3.20;51.20;;;;;;5072615;28;20033;-65
2021/03/21 12:39:32;;;;;;;3.42;1.10;;;3.30;50.80;;;;;;5083118;28;20024;-64
2021/03/21 12:41:58;;;;;;;2.05;0.70;;;3.10;49.40;;;;;;5092120;28;20020;-66
2021/03/21 12:44:29;;;;;;;2.20;0.60;;;3.10;50.20;;;;;;5092611;28;20065;-68
2021/03/21 12:47:00;;;;;;;0.85;0.50;;;3.10;49.30;;;;;;5074071;28;20028;-66
2021/03/21 12:49:28;;;;;;;;;;;3.60;53.10;;;;;;5092627;28;20115;-67
2021/03/21 12:52:02;;;;;;;1.73;0.57;;;3.50;49.50;;;;;;5091806;28;19904;-67
2021/03/21 12:54:28;;;;;;;3.38;0.60;;;3.30;49.80;;;;;;5092069;28;20129;-67
2021/03/21 12:56:54;;;;;;;1.90;0.70;;;3.20;49.70;;;;;;5091912;28;20146;-67
2021/03/21 12:59:21;;;;;;;0.50;0.50;;;3.10;49.30;;;;;;5092037;28;20479;-67
2021/03/21 13:01:48;;;;;;;1.20;1.08;;;3.10;48.50;;;;;;5091979;28;20384;-67
2021/03/21 13:04:14;;;;;;;2.40;0.60;;;3.00;49.10;;;;;;5092102;28;20103;-67
2021/03/21 13:06:40;;;;;;;1.00;0.60;;;3.00;48.80;;;;;;5092318;28;20185;-67
2021/03/21 13:09:06;;;;;;;0.50;0.50;;;3.00;48.50;;;;;;5073710;28;20089;-67
2021/03/21 13:11:33;;;;;;;2.08;0.60;;;2.90;48.30;;;;;;5091915;28;20110;-67
2021/03/21 13:13:59;;;;;;;0.75;0.60;;;2.90;48.30;;;;;;5091656;28;20027;-67
2021/03/21 13:16:25;;;;;;;0.60;0.60;;;2.90;49.00;;;;;;5090608;28;20024;-67
2021/03/21 13:18:51;;;;;;;0.65;0.50;;;3.00;49.20;;;;;;5088890;28;20047;-66
2021/03/21 13:21:16;;;;;;;0.98;0.70;;;3.00;47.70;;;;;;5090779;28;20016;-66
2021/03/21 13:23:42;;;;;;;0.50;0.50;;;3.00;47.30;;;;;;5089464;28;20484;-64
2021/03/21 13:26:08;;;;;;;2.08;0.80;;;3.50;57.30;;;;;;5091044;28;20031;-66
2021/03/21 13:28:33;;;;;;;1.48;0.80;;;4.30;51.30;;;;;;5091656;28;20024;-66
2021/03/21 13:31:00;;;;;;;0.70;0.50;;;3.90;48.60;;;;;;5091263;28;20460;-66
2021/03/21 13:33:30;;;;;;;1.33;0.60;;;3.60;47.50;;;;;;5090952;28;20475;-65
2021/03/21 13:35:59;;;;;;;2.55;0.73;;;3.40;47.60;;;;;;5091480;28;20020;-67
2021/03/21 13:38:27;;;;;;;2.17;0.63;;;3.20;47.00;;;;;;5091500;28;20028;-67
2021/03/21 13:40:56;;;;;;;0.85;0.50;;;3.10;46.30;;;;;;5095192;28;20055;-67
2021/03/21 13:43:23;;;;;;;0.95;0.60;;;3.00;47.00;;;;;;5091605;28;20111;-67
2021/03/21 13:45:50;;;;;;;2.28;0.55;;;3.00;46.60;;;;;;5091409;28;20527;-67
2021/03/21 13:48:16;;;;;;;0.60;0.60;;;3.00;47.50;;;;;;5091130;28;20079;-67
2021/03/21 13:50:43;;;;;;;0.50;0.50;;;2.90;47.00;;;;;;5091214;28;20047;-68
2021/03/21 13:53:10;;;;;;;3.30;0.73;;;2.80;46.90;;;;;;5091840;28;20034;-68
2021/03/21 13:55:39;;;;;;;0.50;0.50;;;2.90;47.40;;;;;;5092557;28;20051;-66
2021/03/21 13:58:05;;;;;;;0.95;0.52;;;2.90;47.50;;;;;;5091440;28;20028;-65
2021/03/21 14:00:33;;;;;;;0.65;0.60;;;3.00;47.30;;;;;;5091203;28;20020;-65
2021/03/21 14:02:59;;;;;;;4.03;0.60;;;3.00;47.20;;;;;;5091349;28;20107;-64
2021/03/21 14:05:26;;;;;;;1.05;0.70;;;2.90;47.20;;;;;;5091589;28;20877;-64
2021/03/21 14:07:52;;;;;;;0.60;0.60;;;2.80;47.80;;;;;;5091198;28;20118;-64
2021/03/21 14:10:23;;;;;;;0.65;0.65;;;2.80;47.90;;;;;;5091271;28;20020;-64
2021/03/21 14:12:49;;;;;;;;;;;2.80;47.90;;;;;;5091408;28;20586;-64
2021/03/21 14:15:20;;;;;;;0.60;0.60;;;2.80;48.70;;;;;;5091266;28;19904;-64
2021/03/21 14:17:53;;;;;;;0.95;0.50;;;2.80;48.80;;;;;;5091398;28;20111;-64
2021/03/21 14:20:21;;;;;;;2.15;0.50;;;2.80;48.20;;;;;;5091081;28;20016;-64
2021/03/21 14:22:47;;;;;;;1.63;0.70;;;2.80;48.10;;;;;;5091205;28;20067;-64
2021/03/21 14:25:14;;;;;;;0.75;0.60;;;2.80;48.80;;;;;;5093749;28;20028;-64
2021/03/21 14:27:40;;;;;;;1.02;0.90;;;2.80;49.30;;;;;;5094893;28;20047;-64
2021/03/21 14:30:07;;;;;;;1.73;0.50;;;2.80;49.90;;;;;;5094901;28;20032;-64
2021/03/21 14:32:33;;;;;;;2.13;0.80;;;2.80;49.30;;;;;;5094955;28;20032;-64
2021/03/21 14:34:59;;;;;;;0.57;0.52;;;2.70;49.30;;;;;;5095019;28;20323;-64
2021/03/21 14:37:25;;;;;;;1.08;0.70;;;2.70;49.50;;;;;;5094829;28;20032;-64
2021/03/21 14:39:51;;;;;;;0.50;0.50;;;2.60;49.00;;;;;;5094479;28;20115;-63
2021/03/21 14:42:18;;;;;;;4.47;0.80;;;2.60;48.80;;;;;;5076345;28;20081;-64
2021/03/21 14:44:44;;;;;;;0.70;0.55;;;2.50;49.20;;;;;;5094838;28;20024;-64
2021/03/21 14:47:09;;;;;;;1.35;0.60;;;2.50;49.30;;;;;;5094875;28;20044;-64
2021/03/21 14:49:35;;;;;;;0.75;0.70;;;2.50;49.70;;;;;;5094781;28;20049;-64
2021/03/21 14:52:01;;;;;;;0.50;0.50;;;2.50;49.20;;;;;;5094981;28;20024;-64
2021/03/21 14:54:27;;;;;;;0.52;0.52;;;2.40;48.40;;;;;;5095191;28;20074;-64
2021/03/21 14:56:53;;;;;;;1.40;0.57;;;2.40;49.60;;;;;;5094975;28;20420;-64
2021/03/21 14:59:18;;;;;;;0.85;0.65;;;2.40;50.40;;;;;;5094805;28;20361;-64
2021/03/21 15:01:44;;;;;;;1.13;0.77;;;2.40;50.20;;;;;;5094693;28;20380;-64
2021/03/21 15:04:10;;;;;;;1.95;0.50;;;2.40;50.40;;;;;;5094161;28;20068;-64
2021/03/21 15:06:35;;;;;;;2.72;0.70;;;2.30;50.40;;;;;;5094547;28;20058;-64
2021/03/21 15:09:01;;;;;;;1.38;0.80;;;2.30;51.30;;;;;;5094412;28;20028;-64
2021/03/21 15:11:27;;;;;;;0.73;0.65;;;2.20;51.20;;;;;;5094360;28;20106;-64
2021/03/21 15:13:53;;;;;;;3.00;0.60;;;2.10;51.20;;;;;;5075963;28;20127;-64
2021/03/21 15:16:18;;;;;;;0.63;0.50;;;2.10;51.70;;;;;;5094449;28;20024;-64
2021/03/21 15:18:46;;;;;;;1.02;0.73;;;2.00;51.50;;;;;;5094614;28;20050;-64
2021/03/21 15:21:14;;;;;;;0.98;0.60;;;1.90;52.00;;;;;;5094111;28;20107;-65
2021/03/21 15:23:43;;;;;;;3.80;0.60;;;1.90;51.90;;;;;;5094524;28;20027;-64
2021/03/21 15:26:12;;;;;;;0.45;0.40;;;1.90;51.60;;;;;;5093913;28;20028;-64
2021/03/21 15:28:39;;;;;;;1.52;0.90;;;1.80;51.20;;;;;;5094407;28;20098;-65
2021/03/21 15:31:26;;;;;;;1.10;0.63;;;1.70;50.50;;;;;;5093778;28;20035;-64
2021/03/21 15:33:52;;;;;;;0.57;0.57;;;1.70;51.70;;;;;;5094889;28;20024;-64
2021/03/21 15:36:17;;;;;;;1.63;0.75;;;1.70;51.80;;;;;;5095315;28;20115;-64
2021/03/21 15:38:43;;;;;;;0.90;0.65;;;1.70;52.00;;;;;;5094252;28;20028;-64
2021/03/21 15:41:09;;;;;;;0.60;0.60;;;1.60;52.20;;;;;;5094588;28;20050;-64
2021/03/21 15:43:35;;;;;;;0.70;0.50;;;1.60;52.50;;;;;;5098610;28;20066;-65
2021/03/21 15:46:01;;;;;;;1.15;0.60;;;1.60;52.80;;;;;;5093586;28;20028;-64
2021/03/21 15:48:27;;;;;;;0.70;0.55;;;1.60;52.80;;;;;;5093686;28;20032;-65
2021/03/21 15:50:53;;;;;;;2.03;0.63;;;1.60;52.90;;;;;;5093406;28;20020;-64
2021/03/21 15:53:18;;;;;;;2.90;0.63;;;1.60;52.90;;;;;;5093624;28;20035;-64
2021/03/21 15:55:44;;;;;;;0.50;0.50;;;1.60;53.10;;;;;;5093583;28;20095;-64
2021/03/21 15:58:10;;;;;;;0.60;0.60;;;1.50;53.40;;;;;;5092938;28;20016;-65
2021/03/21 16:00:40;;;;;;;0.90;0.73;;;1.50;53.20;;;;;;5092302;28;20691;-64
2021/03/21 16:03:10;;;;;;;0.85;0.70;;;1.50;53.30;;;;;;5074873;28;20039;-63
2021/03/21 16:05:40;;;;;;;1.08;0.60;;;1.50;53.60;;;;;;5093473;28;20487;-62
2021/03/21 16:08:08;;;;;;;0.95;0.70;;;1.50;54.60;;;;;;5093540;28;20071;-64
2021/03/21 16:10:35;;;;;;;2.13;0.65;;;1.50;54.10;;;;;;5092838;28;20034;-64
2021/03/21 16:13:01;;;;;;;1.25;0.80;;;1.40;54.00;;;;;;5089857;28;20071;-64
2021/03/21 16:15:28;;;;;;;1.35;0.77;;;1.40;53.60;;;;;;5092476;28;20039;-64
2021/03/21 16:17:54;;;;;;;0.70;0.70;;;1.40;54.10;;;;;;5092051;28;20032;-65
2021/03/21 16:20:23;;;;;;;4.03;0.65;;;1.30;53.80;;;;;;5089700;28;20054;-64
2021/03/21 16:22:49;;;;;;;1.25;0.90;;;1.30;54.00;;;;;;5092393;28;20027;-64
2021/03/21 16:25:16;;;;;;;1.83;0.70;;;1.30;54.10;;;;;;5092419;28;20154;-65
2021/03/21 16:27:42;;;;;;;1.40;0.70;;;1.20;55.00;;;;;;5092327;28;20107;-64
2021/03/21 16:30:11;;;;;;;1.00;0.80;;;1.20;54.60;;;;;;5091879;28;20131;-64
2021/03/21 16:32:38;;;;;;;0.80;0.70;;;1.10;54.90;;;;;;5092272;28;20157;-64
2021/03/21 16:35:09;;;;;;;0.90;0.80;;;1.10;54.90;;;;;;5092708;28;20024;-65
2021/03/21 16:37:35;;;;;;;3.42;0.80;;;1.10;56.80;;;;;;5092843;28;20418;-66
2021/03/21 16:40:01;;;;;;;1.08;0.60;;;1.50;56.90;;;;;;5092092;28;20028;-65
2021/03/21 16:42:26;;;;;;;1.50;0.75;;;1.70;59.20;;;;;;5092681;28;20024;-65
2021/03/21 16:44:52;;;;;;;0.65;0.55;;;1.60;55.20;;;;;;5092683;28;20050;-66
2021/03/21 16:47:18;;;;;;;1.33;0.65;;;1.40;54.40;;;;;;5092462;28;20043;-65
2021/03/21 16:49:43;;;;;;;1.63;1.02;;;1.30;55.30;;;;;;5073623;28;20031;-68
2021/03/21 16:52:09;;;;;;;1.70;0.65;;;1.20;58.00;;;;;;5092726;28;20031;-66
2021/03/21 16:54:35;;;;;;;5.63;1.27;;;2.30;65.00;;;;;;5092698;28;20365;-66
2021/03/21 16:57:01;;;;;;;1.02;0.65;;;3.60;90.80;;;;;;5092340;28;20115;-66
2021/03/21 16:59:26;;;;;;;1.02;0.77;;;4.30;68.40;;;;;;5092491;28;20035;-67
2021/03/21 17:01:52;;;;;;;2.25;0.88;;;3.60;56.60;;;;;;5092420;28;20020;-66
2021/03/21 17:04:18;;;;;;;0.85;0.70;;;2.80;54.40;;;;;;5092488;28;20024;-67
2021/03/21 17:06:44;;;;;;;0.95;0.70;;;2.20;54.80;;;;;;5092341;28;20055;-66
2021/03/21 17:09:09;;;;;;;0.98;0.60;;;1.80;55.50;;;;;;5092313;28;20479;-66
2021/03/21 17:11:36;;;;;;;4.63;0.80;;;1.60;56.20;;;;;;5092227;28;20024;-66
2021/03/21 17:14:01;;;;;;;0.70;0.57;;;1.50;56.40;;;;;;5092283;28;20062;-66
2021/03/21 17:16:27;;;;;;;0.98;0.63;;;1.30;55.50;;;;;;5092296;28;20024;-66
2021/03/21 17:18:53;;;;;;;1.17;0.93;;;1.20;55.50;;;;;;5092172;28;20080;-66
2021/03/21 17:21:20;;;;;;;2.40;0.80;;;1.10;56.00;;;;;;5092221;28;20069;-67
2021/03/21 17:23:46;;;;;;;1.52;0.70;;;1.00;56.30;;;;;;5092238;28;20532;-66
2021/03/21 17:26:12;;;;;;;1.70;0.80;;;0.90;56.30;;;;;;5092019;28;20035;-66
2021/03/21 17:28:38;;;;;;;1.60;0.95;;;1.20;65.10;;;;;;5092103;28;20035;-67
2021/03/21 17:31:06;;;;;;;3.10;0.77;;;1.20;57.40;;;;;;5092026;28;20024;-67
2021/03/21 17:33:32;;;;;;;2.45;0.82;;;1.00;56.20;;;;;;5091916;28;20503;-68
2021/03/21 17:35:58;;;;;;;2.13;0.90;;;0.90;56.50;;;;;;5091662;28;20035;-68
2021/03/21 17:38:24;;;;;;;1.10;0.65;;;0.80;56.80;;;;;;5092183;28;20028;-68
2021/03/21 17:40:50;;;;;;;4.80;0.90;;;0.80;56.60;;;;;;5092009;28;20020;-67
2021/03/21 17:43:22;;;;;;;2.08;0.70;;;0.70;56.30;;;;;;5091601;28;20383;-67
2021/03/21 17:45:50;;;;;;;1.30;0.88;;;0.60;57.00;;;;;;5091609;28;20426;-67